sensor_id;sensor_type;location;lat;lon;timestamp;P1;durP1;ratioP1;P2;durP2;ratioP2
7835;SDS011;3963;42.658;23.298;2023-03-12T00:00:57;5.53;;;3.20;;
7835;SDS011;3963;42.658;23.298;2023-03-12T00:03:23;3.73;;;3.13;;
7835;SDS011;3963;42.658;23.298;2023-03-12T00:05:50;5.80;;;3.43;;
7835;SDS011;3963;42.658;23.298;2023-03-12T00:08:17;4.83;;;3.00;;
7835;SDS011;3963;42.658;23.298;2023-03-12T00:10:43;6.07;;;3.63;;
7835;SDS011;3963;42.658;23.298;2023-03-12T00:13:10;4.67;;;3.70;;
7835;SDS011;3963;42.658;23.298;2023-03-12T00:15:38;7.33;;;4.40;;
7835;SDS011;3963;42.658;23.298;2023-03-12T00:18:05;7.73;;;4.80;;
7835;SDS011;3963;42.658;23.298;2023-03-12T00:20:32;9.53;;;4.87;;
7835;SDS011;3963;42.658;23.298;2023-03-12T00:22:59;5.03;;;4.10;;
7835;SDS011;3963;42.658;23.298;2023-03-12T00:25:26;6.93;;;4.27;;
7835;SDS011;3963;42.658;23.298;2023-03-12T00:27:52;6.03;;;4.80;;
7835;SDS011;3963;42.658;23.298;2023-03-12T00:30:19;7.60;;;4.63;;
7835;SDS011;3963;42.658;23.298;2023-03-12T00:32:47;8.50;;;4.30;;
7835;SDS011;3963;42.658;23.298;2023-03-12T00:35:14;3.87;;;3.20;;
7835;SDS011;3963;42.658;23.298;2023-03-12T00:37:41;10.53;;;6.27;;
7835;SDS011;3963;42.658;23.298;2023-03-12T00:40:08;4.03;;;3.63;;
7835;SDS011;3963;42.658;23.298;2023-03-12T00:42:35;5.13;;;4.63;;
7835;SDS011;3963;42.658;23.298;2023-03-12T00:45:02;5.53;;;3.90;;
7835;SDS011;3963;42.658;23.298;2023-03-12T00:47:29;7.97;;;4.73;;
7835;SDS011;3963;42.658;23.298;2023-03-12T00:49:57;7.37;;;4.43;;
7835;SDS011;3963;42.658;23.298;2023-03-12T00:52:24;9.50;;;4.87;;
7835;SDS011;3963;42.658;23.298;2023-03-12T00:54:51;6.70;;;4.53;;
7835;SDS011;3963;42.658;23.298;2023-03-12T00:57:22;5.40;;;4.63;;
7835;SDS011;3963;42.658;23.298;2023-03-12T00:59:48;4.93;;;4.20;;
7835;SDS011;3963;42.658;23.298;2023-03-12T01:02:15;7.80;;;4.53;;
7835;SDS011;3963;42.658;23.298;2023-03-12T01:04:42;5.60;;;4.23;;
7835;SDS011;3963;42.658;23.298;2023-03-12T01:07:10;14.03;;;9.03;;
7835;SDS011;3963;42.658;23.298;2023-03-12T01:09:37;6.93;;;5.50;;
7835;SDS011;3963;42.658;23.298;2023-03-12T01:12:04;6.43;;;4.27;;
7835;SDS011;3963;42.658;23.298;2023-03-12T01:14:31;5.87;;;4.30;;
7835;SDS011;3963;42.658;23.298;2023-03-12T01:16:59;4.93;;;3.73;;
7835;SDS011;3963;42.658;23.298;2023-03-12T01:19:26;6.13;;;4.30;;
7835;SDS011;3963;42.658;23.298;2023-03-12T01:21:52;4.70;;;3.70;;
7835;SDS011;3963;42.658;23.298;2023-03-12T01:24:21;8.13;;;4.40;;
7835;SDS011;3963;42.658;23.298;2023-03-12T01:26:48;8.10;;;4.33;;
7835;SDS011;3963;42.658;23.298;2023-03-12T01:29:15;4.50;;;4.10;;
7835;SDS011;3963;42.658;23.298;2023-03-12T01:31:41;4.97;;;4.27;;
7835;SDS011;3963;42.658;23.298;2023-03-12T01:34:08;5.67;;;4.67;;
7835;SDS011;3963;42.658;23.298;2023-03-12T01:36:36;9.13;;;4.70;;
7835;SDS011;3963;42.658;23.298;2023-03-12T01:39:03;6.93;;;4.47;;
7835;SDS011;3963;42.658;23.298;2023-03-12T01:41:32;5.50;;;3.97;;
7835;SDS011;3963;42.658;23.298;2023-03-12T01:43:59;6.37;;;4.43;;
7835;SDS011;3963;42.658;23.298;2023-03-12T01:46:29;6.67;;;4.33;;
7835;SDS011;3963;42.658;23.298;2023-03-12T01:48:58;4.90;;;4.37;;
7835;SDS011;3963;42.658;23.298;2023-03-12T01:51:30;8.43;;;5.00;;
7835;SDS011;3963;42.658;23.298;2023-03-12T01:54:01;5.97;;;4.17;;
7835;SDS011;3963;42.658;23.298;2023-03-12T01:56:34;4.57;;;4.17;;
7835;SDS011;3963;42.658;23.298;2023-03-12T01:59:06;5.27;;;3.90;;
7835;SDS011;3963;42.658;23.298;2023-03-12T02:01:37;5.10;;;4.40;;
7835;SDS011;3963;42.658;23.298;2023-03-12T02:04:05;5.17;;;4.67;;
7835;SDS011;3963;42.658;23.298;2023-03-12T02:06:33;6.50;;;4.87;;
7835;SDS011;3963;42.658;23.298;2023-03-12T02:09:04;5.83;;;4.23;;
7835;SDS011;3963;42.658;23.298;2023-03-12T02:11:33;4.93;;;4.10;;
7835;SDS011;3963;42.658;23.298;2023-03-12T02:14:00;5.03;;;3.80;;
7835;SDS011;3963;42.658;23.298;2023-03-12T02:16:27;6.33;;;3.87;;
7835;SDS011;3963;42.658;23.298;2023-03-12T02:18:55;4.07;;;3.67;;
7835;SDS011;3963;42.658;23.298;2023-03-12T02:21:26;6.10;;;3.67;;
7835;SDS011;3963;42.658;23.298;2023-03-12T02:23:59;4.87;;;3.90;;
7835;SDS011;3963;42.658;23.298;2023-03-12T02:26:33;5.90;;;3.77;;
7835;SDS011;3963;42.658;23.298;2023-03-12T02:29:02;4.43;;;3.43;;
7835;SDS011;3963;42.658;23.298;2023-03-12T02:31:30;5.43;;;4.03;;
7835;SDS011;3963;42.658;23.298;2023-03-12T02:34:02;5.07;;;3.60;;
7835;SDS011;3963;42.658;23.298;2023-03-12T02:36:29;4.80;;;3.80;;
7835;SDS011;3963;42.658;23.298;2023-03-12T02:38:56;6.53;;;3.67;;
7835;SDS011;3963;42.658;23.298;2023-03-12T02:41:23;5.83;;;4.17;;
7835;SDS011;3963;42.658;23.298;2023-03-12T02:43:56;5.17;;;4.13;;
7835;SDS011;3963;42.658;23.298;2023-03-12T02:46:27;5.20;;;3.97;;
7835;SDS011;3963;42.658;23.298;2023-03-12T02:48:56;5.23;;;3.90;;
7835;SDS011;3963;42.658;23.298;2023-03-12T02:51:24;6.50;;;4.07;;
7835;SDS011;3963;42.658;23.298;2023-03-12T02:53:51;5.93;;;4.00;;
7835;SDS011;3963;42.658;23.298;2023-03-12T02:56:19;4.47;;;3.50;;
7835;SDS011;3963;42.658;23.298;2023-03-12T02:58:47;6.50;;;4.00;;
7835;SDS011;3963;42.658;23.298;2023-03-12T03:01:16;3.87;;;3.47;;
7835;SDS011;3963;42.658;23.298;2023-03-12T03:03:43;5.77;;;4.00;;
7835;SDS011;3963;42.658;23.298;2023-03-12T03:06:10;5.43;;;3.70;;
7835;SDS011;3963;42.658;23.298;2023-03-12T03:08:37;4.73;;;3.40;;
7835;SDS011;3963;42.658;23.298;2023-03-12T03:11:04;4.50;;;3.23;;
7835;SDS011;3963;42.658;23.298;2023-03-12T03:13:31;5.73;;;3.70;;
7835;SDS011;3963;42.658;23.298;2023-03-12T03:15:59;4.33;;;3.30;;
7835;SDS011;3963;42.658;23.298;2023-03-12T03:18:29;2.67;;;2.27;;
7835;SDS011;3963;42.658;23.298;2023-03-12T03:20:57;5.43;;;3.40;;
7835;SDS011;3963;42.658;23.298;2023-03-12T03:23:25;3.27;;;2.73;;
7835;SDS011;3963;42.658;23.298;2023-03-12T03:25:52;3.83;;;3.00;;
7835;SDS011;3963;42.658;23.298;2023-03-12T03:28:19;4.30;;;3.00;;
7835;SDS011;3963;42.658;23.298;2023-03-12T03:30:48;4.03;;;2.60;;
7835;SDS011;3963;42.658;23.298;2023-03-12T03:33:17;5.63;;;3.10;;
7835;SDS011;3963;42.658;23.298;2023-03-12T03:35:46;4.17;;;2.53;;
7835;SDS011;3963;42.658;23.298;2023-03-12T03:38:13;6.33;;;2.60;;
7835;SDS011;3963;42.658;23.298;2023-03-12T03:40:39;5.43;;;2.60;;
7835;SDS011;3963;42.658;23.298;2023-03-12T03:43:06;5.27;;;3.07;;
7835;SDS011;3963;42.658;23.298;2023-03-12T03:45:33;3.63;;;2.73;;
7835;SDS011;3963;42.658;23.298;2023-03-12T03:48:00;3.47;;;2.70;;
7835;SDS011;3963;42.658;23.298;2023-03-12T03:50:26;2.90;;;2.50;;
7835;SDS011;3963;42.658;23.298;2023-03-12T03:52:54;2.60;;;2.40;;
7835;SDS011;3963;42.658;23.298;2023-03-12T03:55:21;2.63;;;2.40;;
7835;SDS011;3963;42.658;23.298;2023-03-12T03:57:48;2.97;;;2.67;;
7835;SDS011;3963;42.658;23.298;2023-03-12T04:02:42;3.10;;;2.50;;
7835;SDS011;3963;42.658;23.298;2023-03-12T04:05:09;3.00;;;2.70;;
7835;SDS011;3963;42.658;23.298;2023-03-12T04:07:37;4.87;;;2.20;;
7835;SDS011;3963;42.658;23.298;2023-03-12T04:10:06;3.00;;;2.33;;
7835;SDS011;3963;42.658;23.298;2023-03-12T04:12:33;3.47;;;2.60;;
7835;SDS011;3963;42.658;23.298;2023-03-12T04:15:00;4.50;;;3.30;;
7835;SDS011;3963;42.658;23.298;2023-03-12T04:17:27;3.03;;;2.70;;
7835;SDS011;3963;42.658;23.298;2023-03-12T04:19:54;4.30;;;2.40;;
7835;SDS011;3963;42.658;23.298;2023-03-12T04:22:21;3.97;;;2.40;;
7835;SDS011;3963;42.658;23.298;2023-03-12T04:24:48;3.57;;;1.90;;
7835;SDS011;3963;42.658;23.298;2023-03-12T04:27:16;4.57;;;2.23;;
7835;SDS011;3963;42.658;23.298;2023-03-12T04:29:43;2.40;;;2.20;;
7835;SDS011;3963;42.658;23.298;2023-03-12T04:32:10;3.23;;;2.70;;
7835;SDS011;3963;42.658;23.298;2023-03-12T04:34:36;3.53;;;2.53;;
7835;SDS011;3963;42.658;23.298;2023-03-12T04:37:03;4.53;;;2.30;;
7835;SDS011;3963;42.658;23.298;2023-03-12T04:39:30;2.97;;;2.13;;
7835;SDS011;3963;42.658;23.298;2023-03-12T04:41:57;2.97;;;2.37;;
7835;SDS011;3963;42.658;23.298;2023-03-12T04:44:25;5.03;;;2.40;;
7835;SDS011;3963;42.658;23.298;2023-03-12T04:46:52;2.70;;;2.20;;
7835;SDS011;3963;42.658;23.298;2023-03-12T04:49:18;3.10;;;2.23;;
7835;SDS011;3963;42.658;23.298;2023-03-12T04:51:45;2.50;;;2.20;;
7835;SDS011;3963;42.658;23.298;2023-03-12T04:54:12;2.20;;;2.00;;
7835;SDS011;3963;42.658;23.298;2023-03-12T04:56:39;2.50;;;2.20;;
7835;SDS011;3963;42.658;23.298;2023-03-12T04:59:06;2.67;;;1.83;;
7835;SDS011;3963;42.658;23.298;2023-03-12T05:01:34;2.73;;;1.80;;
7835;SDS011;3963;42.658;23.298;2023-03-12T05:04:02;3.23;;;1.90;;
7835;SDS011;3963;42.658;23.298;2023-03-12T05:06:29;2.00;;;1.77;;
7835;SDS011;3963;42.658;23.298;2023-03-12T05:08:56;5.70;;;1.93;;
7835;SDS011;3963;42.658;23.298;2023-03-12T05:11:23;3.47;;;1.83;;
7835;SDS011;3963;42.658;23.298;2023-03-12T05:13:50;2.60;;;1.83;;
7835;SDS011;3963;42.658;23.298;2023-03-12T05:16:17;2.90;;;2.07;;
7835;SDS011;3963;42.658;23.298;2023-03-12T05:18:45;2.63;;;2.20;;
7835;SDS011;3963;42.658;23.298;2023-03-12T05:21:13;3.90;;;3.07;;
7835;SDS011;3963;42.658;23.298;2023-03-12T05:23:42;3.00;;;1.80;;
7835;SDS011;3963;42.658;23.298;2023-03-12T05:26:14;1.93;;;1.70;;
7835;SDS011;3963;42.658;23.298;2023-03-12T05:28:42;2.40;;;1.80;;
7835;SDS011;3963;42.658;23.298;2023-03-12T05:31:09;1.97;;;1.77;;
7835;SDS011;3963;42.658;23.298;2023-03-12T05:33:37;4.13;;;1.70;;
7835;SDS011;3963;42.658;23.298;2023-03-12T05:36:06;3.23;;;2.20;;
7835;SDS011;3963;42.658;23.298;2023-03-12T05:38:33;2.00;;;1.77;;
7835;SDS011;3963;42.658;23.298;2023-03-12T05:41:00;3.37;;;2.10;;
7835;SDS011;3963;42.658;23.298;2023-03-12T05:43:28;1.90;;;1.70;;
7835;SDS011;3963;42.658;23.298;2023-03-12T05:45:57;2.47;;;2.10;;
7835;SDS011;3963;42.658;23.298;2023-03-12T05:48:25;5.10;;;2.00;;
7835;SDS011;3963;42.658;23.298;2023-03-12T05:50:52;2.13;;;1.87;;
7835;SDS011;3963;42.658;23.298;2023-03-12T05:53:20;4.13;;;2.20;;
7835;SDS011;3963;42.658;23.298;2023-03-12T05:55:47;3.77;;;1.90;;
7835;SDS011;3963;42.658;23.298;2023-03-12T05:58:13;3.97;;;2.27;;
7835;SDS011;3963;42.658;23.298;2023-03-12T06:00:41;2.73;;;2.07;;
7835;SDS011;3963;42.658;23.298;2023-03-12T06:03:08;3.40;;;1.90;;
7835;SDS011;3963;42.658;23.298;2023-03-12T06:05:36;2.30;;;2.07;;
7835;SDS011;3963;42.658;23.298;2023-03-12T06:08:04;2.43;;;2.07;;
7835;SDS011;3963;42.658;23.298;2023-03-12T06:10:33;2.30;;;2.10;;
7835;SDS011;3963;42.658;23.298;2023-03-12T06:13:02;5.40;;;2.17;;
7835;SDS011;3963;42.658;23.298;2023-03-12T06:15:29;4.80;;;2.60;;
7835;SDS011;3963;42.658;23.298;2023-03-12T06:17:56;2.50;;;2.23;;
7835;SDS011;3963;42.658;23.298;2023-03-12T06:20:23;2.17;;;1.80;;
7835;SDS011;3963;42.658;23.298;2023-03-12T06:22:50;3.30;;;2.20;;
7835;SDS011;3963;42.658;23.298;2023-03-12T06:25:16;2.97;;;2.03;;
7835;SDS011;3963;42.658;23.298;2023-03-12T06:27:44;2.80;;;2.00;;
7835;SDS011;3963;42.658;23.298;2023-03-12T06:30:12;2.30;;;2.10;;
7835;SDS011;3963;42.658;23.298;2023-03-12T06:32:39;4.00;;;2.30;;
7835;SDS011;3963;42.658;23.298;2023-03-12T06:35:06;5.20;;;2.70;;
7835;SDS011;3963;42.658;23.298;2023-03-12T06:37:34;3.67;;;2.90;;
7835;SDS011;3963;42.658;23.298;2023-03-12T06:40:01;2.67;;;2.40;;
7835;SDS011;3963;42.658;23.298;2023-03-12T06:42:28;4.80;;;2.50;;
7835;SDS011;3963;42.658;23.298;2023-03-12T06:45:02;5.17;;;2.80;;
7835;SDS011;3963;42.658;23.298;2023-03-12T06:48:04;3.47;;;2.47;;
7835;SDS011;3963;42.658;23.298;2023-03-12T06:50:31;4.80;;;2.77;;
7835;SDS011;3963;42.658;23.298;2023-03-12T06:52:57;3.57;;;3.13;;
7835;SDS011;3963;42.658;23.298;2023-03-12T06:55:24;3.30;;;2.47;;
7835;SDS011;3963;42.658;23.298;2023-03-12T06:57:51;5.83;;;2.53;;
7835;SDS011;3963;42.658;23.298;2023-03-12T07:00:19;4.43;;;2.93;;
7835;SDS011;3963;42.658;23.298;2023-03-12T07:02:47;3.23;;;2.20;;
7835;SDS011;3963;42.658;23.298;2023-03-12T07:05:14;5.87;;;3.10;;
7835;SDS011;3963;42.658;23.298;2023-03-12T07:07:40;3.87;;;2.60;;
7835;SDS011;3963;42.658;23.298;2023-03-12T07:10:09;3.20;;;2.60;;
7835;SDS011;3963;42.658;23.298;2023-03-12T07:12:36;3.90;;;2.73;;
7835;SDS011;3963;42.658;23.298;2023-03-12T07:15:03;4.47;;;2.83;;
7835;SDS011;3963;42.658;23.298;2023-03-12T07:17:32;5.30;;;2.60;;
7835;SDS011;3963;42.658;23.298;2023-03-12T07:19:59;3.57;;;2.40;;
7835;SDS011;3963;42.658;23.298;2023-03-12T07:22:26;2.83;;;2.30;;
7835;SDS011;3963;42.658;23.298;2023-03-12T07:24:52;3.23;;;2.80;;
7835;SDS011;3963;42.658;23.298;2023-03-12T07:27:19;4.90;;;2.67;;
7835;SDS011;3963;42.658;23.298;2023-03-12T07:29:46;5.43;;;3.00;;
7835;SDS011;3963;42.658;23.298;2023-03-12T07:32:13;4.13;;;2.30;;
7835;SDS011;3963;42.658;23.298;2023-03-12T07:34:42;5.20;;;2.70;;
7835;SDS011;3963;42.658;23.298;2023-03-12T07:37:08;4.30;;;2.70;;
7835;SDS011;3963;42.658;23.298;2023-03-12T07:39:35;3.83;;;2.90;;
7835;SDS011;3963;42.658;23.298;2023-03-12T07:42:02;4.17;;;2.83;;
7835;SDS011;3963;42.658;23.298;2023-03-12T07:44:29;3.17;;;2.10;;
7835;SDS011;3963;42.658;23.298;2023-03-12T07:46:57;3.60;;;2.60;;
7835;SDS011;3963;42.658;23.298;2023-03-12T07:49:24;2.73;;;2.30;;
7835;SDS011;3963;42.658;23.298;2023-03-12T07:51:53;3.27;;;2.40;;
7835;SDS011;3963;42.658;23.298;2023-03-12T07:54:19;4.00;;;2.33;;
7835;SDS011;3963;42.658;23.298;2023-03-12T07:56:49;6.50;;;3.40;;
7835;SDS011;3963;42.658;23.298;2023-03-12T07:59:16;2.60;;;2.23;;
7835;SDS011;3963;42.658;23.298;2023-03-12T08:01:43;4.40;;;2.20;;
7835;SDS011;3963;42.658;23.298;2023-03-12T08:04:10;4.77;;;2.30;;
7835;SDS011;3963;42.658;23.298;2023-03-12T08:06:37;2.60;;;2.13;;
7835;SDS011;3963;42.658;23.298;2023-03-12T08:09:08;4.57;;;2.27;;
7835;SDS011;3963;42.658;23.298;2023-03-12T08:11:35;3.33;;;2.43;;
7835;SDS011;3963;42.658;23.298;2023-03-12T08:14:02;3.00;;;2.53;;
7835;SDS011;3963;42.658;23.298;2023-03-12T08:16:29;4.00;;;3.50;;
7835;SDS011;3963;42.658;23.298;2023-03-12T08:18:56;2.97;;;2.33;;
7835;SDS011;3963;42.658;23.298;2023-03-12T08:21:23;4.77;;;2.57;;
7835;SDS011;3963;42.658;23.298;2023-03-12T08:23:50;4.30;;;2.70;;
7835;SDS011;3963;42.658;23.298;2023-03-12T08:26:18;4.10;;;2.33;;
7835;SDS011;3963;42.658;23.298;2023-03-12T08:28:45;4.30;;;2.87;;
7835;SDS011;3963;42.658;23.298;2023-03-12T08:31:12;2.37;;;2.17;;
7835;SDS011;3963;42.658;23.298;2023-03-12T08:33:39;3.87;;;2.47;;
7835;SDS011;3963;42.658;23.298;2023-03-12T08:36:07;2.93;;;2.37;;
7835;SDS011;3963;42.658;23.298;2023-03-12T08:38:34;2.80;;;2.30;;
7835;SDS011;3963;42.658;23.298;2023-03-12T08:41:01;3.60;;;2.73;;
7835;SDS011;3963;42.658;23.298;2023-03-12T08:43:30;4.23;;;2.63;;
7835;SDS011;3963;42.658;23.298;2023-03-12T08:45:57;3.90;;;2.60;;
7835;SDS011;3963;42.658;23.298;2023-03-12T08:48:25;3.13;;;2.47;;
7835;SDS011;3963;42.658;23.298;2023-03-12T08:50:53;5.03;;;3.90;;
7835;SDS011;3963;42.658;23.298;2023-03-12T08:53:20;3.63;;;2.73;;
7835;SDS011;3963;42.658;23.298;2023-03-12T08:55:47;3.17;;;2.50;;
7835;SDS011;3963;42.658;23.298;2023-03-12T08:58:17;2.87;;;2.40;;
7835;SDS011;3963;42.658;23.298;2023-03-12T09:00:45;3.50;;;2.57;;
7835;SDS011;3963;42.658;23.298;2023-03-12T09:03:11;6.53;;;2.63;;
7835;SDS011;3963;42.658;23.298;2023-03-12T09:05:39;3.43;;;2.50;;
7835;SDS011;3963;42.658;23.298;2023-03-12T09:08:06;4.33;;;2.30;;
7835;SDS011;3963;42.658;23.298;2023-03-12T09:10:33;2.87;;;2.10;;
7835;SDS011;3963;42.658;23.298;2023-03-12T09:13:00;2.50;;;2.10;;
7835;SDS011;3963;42.658;23.298;2023-03-12T09:15:27;3.33;;;2.17;;
7835;SDS011;3963;42.658;23.298;2023-03-12T09:17:56;3.07;;;2.53;;
7835;SDS011;3963;42.658;23.298;2023-03-12T09:20:23;3.33;;;2.30;;
7835;SDS011;3963;42.658;23.298;2023-03-12T09:22:50;3.07;;;2.40;;
7835;SDS011;3963;42.658;23.298;2023-03-12T09:25:17;3.50;;;2.33;;
7835;SDS011;3963;42.658;23.298;2023-03-12T09:27:45;4.03;;;2.20;;
7835;SDS011;3963;42.658;23.298;2023-03-12T09:30:13;4.43;;;2.57;;
7835;SDS011;3963;42.658;23.298;2023-03-12T09:32:43;6.57;;;2.43;;
7835;SDS011;3963;42.658;23.298;2023-03-12T09:35:12;2.20;;;2.00;;
7835;SDS011;3963;42.658;23.298;2023-03-12T09:37:41;2.60;;;2.27;;
7835;SDS011;3963;42.658;23.298;2023-03-12T09:40:10;3.47;;;2.20;;
7835;SDS011;3963;42.658;23.298;2023-03-12T09:42:42;2.43;;;1.90;;
7835;SDS011;3963;42.658;23.298;2023-03-12T09:45:13;2.77;;;2.20;;
7835;SDS011;3963;42.658;23.298;2023-03-12T09:47:45;3.30;;;2.37;;
7835;SDS011;3963;42.658;23.298;2023-03-12T09:50:18;6.33;;;2.30;;
7835;SDS011;3963;42.658;23.298;2023-03-12T09:52:50;3.60;;;1.97;;
7835;SDS011;3963;42.658;23.298;2023-03-12T09:55:22;4.53;;;2.30;;
7835;SDS011;3963;42.658;23.298;2023-03-12T09:57:49;4.67;;;2.70;;
7835;SDS011;3963;42.658;23.298;2023-03-12T10:00:18;3.53;;;2.23;;
7835;SDS011;3963;42.658;23.298;2023-03-12T10:05:46;3.70;;;2.20;;
7835;SDS011;3963;42.658;23.298;2023-03-12T10:08:28;3.73;;;2.80;;
7835;SDS011;3963;42.658;23.298;2023-03-12T10:11:06;3.93;;;2.57;;
7835;SDS011;3963;42.658;23.298;2023-03-12T10:13:46;2.67;;;2.10;;
7835;SDS011;3963;42.658;23.298;2023-03-12T10:16:27;2.63;;;2.20;;
7835;SDS011;3963;42.658;23.298;2023-03-12T10:19:04;3.47;;;2.33;;
7835;SDS011;3963;42.658;23.298;2023-03-12T10:21:49;4.63;;;2.60;;
7835;SDS011;3963;42.658;23.298;2023-03-12T10:24:34;2.67;;;1.97;;
7835;SDS011;3963;42.658;23.298;2023-03-12T10:27:08;4.63;;;2.13;;
7835;SDS011;3963;42.658;23.298;2023-03-12T10:29:40;2.30;;;2.10;;
7835;SDS011;3963;42.658;23.298;2023-03-12T10:32:11;2.23;;;1.90;;
7835;SDS011;3963;42.658;23.298;2023-03-12T10:34:42;3.53;;;2.20;;
7835;SDS011;3963;42.658;23.298;2023-03-12T10:37:15;2.37;;;2.07;;
7835;SDS011;3963;42.658;23.298;2023-03-12T10:39:45;2.90;;;2.20;;
7835;SDS011;3963;42.658;23.298;2023-03-12T10:42:13;3.00;;;2.30;;
7835;SDS011;3963;42.658;23.298;2023-03-12T10:44:42;3.00;;;2.20;;
7835;SDS011;3963;42.658;23.298;2023-03-12T10:47:16;2.70;;;2.30;;
7835;SDS011;3963;42.658;23.298;2023-03-12T10:49:59;5.40;;;2.17;;
7835;SDS011;3963;42.658;23.298;2023-03-12T10:52:39;3.43;;;2.83;;
7835;SDS011;3963;42.658;23.298;2023-03-12T10:55:10;3.03;;;1.93;;
7835;SDS011;3963;42.658;23.298;2023-03-12T10:57:39;2.13;;;1.90;;
7835;SDS011;3963;42.658;23.298;2023-03-12T11:00:08;3.97;;;2.63;;
7835;SDS011;3963;42.658;23.298;2023-03-12T11:02:37;2.97;;;1.93;;
7835;SDS011;3963;42.658;23.298;2023-03-12T11:05:18;3.17;;;2.07;;
7835;SDS011;3963;42.658;23.298;2023-03-12T11:07:48;3.93;;;2.17;;
7835;SDS011;3963;42.658;23.298;2023-03-12T11:10:19;3.10;;;2.30;;
7835;SDS011;3963;42.658;23.298;2023-03-12T11:12:56;2.50;;;2.23;;
7835;SDS011;3963;42.658;23.298;2023-03-12T11:15:26;3.27;;;2.13;;
7835;SDS011;3963;42.658;23.298;2023-03-12T11:18:17;3.20;;;2.13;;
7835;SDS011;3963;42.658;23.298;2023-03-12T11:20:52;2.93;;;2.17;;
7835;SDS011;3963;42.658;23.298;2023-03-12T11:23:24;3.23;;;2.33;;
7835;SDS011;3963;42.658;23.298;2023-03-12T11:25:55;2.57;;;1.73;;
7835;SDS011;3963;42.658;23.298;2023-03-12T11:28:27;2.60;;;2.40;;
7835;SDS011;3963;42.658;23.298;2023-03-12T11:31:01;2.63;;;2.13;;
7835;SDS011;3963;42.658;23.298;2023-03-12T11:33:31;3.27;;;2.40;;
7835;SDS011;3963;42.658;23.298;2023-03-12T11:36:04;3.03;;;2.13;;
7835;SDS011;3963;42.658;23.298;2023-03-12T11:38:44;4.30;;;2.50;;
7835;SDS011;3963;42.658;23.298;2023-03-12T11:41:25;3.07;;;2.10;;
7835;SDS011;3963;42.658;23.298;2023-03-12T11:44:16;2.13;;;1.93;;
7835;SDS011;3963;42.658;23.298;2023-03-12T11:46:54;2.73;;;2.10;;
7835;SDS011;3963;42.658;23.298;2023-03-12T11:49:32;2.53;;;2.03;;
7835;SDS011;3963;42.658;23.298;2023-03-12T11:52:08;3.00;;;2.10;;
7835;SDS011;3963;42.658;23.298;2023-03-12T11:55:01;4.43;;;2.07;;
7835;SDS011;3963;42.658;23.298;2023-03-12T11:57:37;3.30;;;2.30;;
7835;SDS011;3963;42.658;23.298;2023-03-12T12:00:13;6.97;;;2.10;;
7835;SDS011;3963;42.658;23.298;2023-03-12T12:02:58;2.57;;;2.07;;
7835;SDS011;3963;42.658;23.298;2023-03-12T12:05:51;2.10;;;1.90;;
7835;SDS011;3963;42.658;23.298;2023-03-12T12:08:28;5.33;;;2.70;;
7835;SDS011;3963;42.658;23.298;2023-03-12T12:11:07;10.77;;;5.80;;
7835;SDS011;3963;42.658;23.298;2023-03-12T12:13:41;3.37;;;2.13;;
7835;SDS011;3963;42.658;23.298;2023-03-12T12:16:27;4.67;;;2.90;;
7835;SDS011;3963;42.658;23.298;2023-03-12T12:19:10;2.53;;;2.27;;
7835;SDS011;3963;42.658;23.298;2023-03-12T12:21:51;2.60;;;2.00;;
7835;SDS011;3963;42.658;23.298;2023-03-12T12:24:33;2.70;;;2.17;;
7835;SDS011;3963;42.658;23.298;2023-03-12T12:27:11;3.00;;;2.20;;
7835;SDS011;3963;42.658;23.298;2023-03-12T12:29:51;5.83;;;2.27;;
7835;SDS011;3963;42.658;23.298;2023-03-12T12:32:32;3.47;;;2.30;;
7835;SDS011;3963;42.658;23.298;2023-03-12T12:35:17;2.10;;;1.90;;
7835;SDS011;3963;42.658;23.298;2023-03-12T12:37:52;3.80;;;2.10;;
7835;SDS011;3963;42.658;23.298;2023-03-12T12:40:24;2.67;;;2.00;;
7835;SDS011;3963;42.658;23.298;2023-03-12T12:42:58;2.60;;;2.20;;
7835;SDS011;3963;42.658;23.298;2023-03-12T12:45:31;2.47;;;2.00;;
7835;SDS011;3963;42.658;23.298;2023-03-12T12:47:59;2.00;;;1.80;;
7835;SDS011;3963;42.658;23.298;2023-03-12T12:50:30;2.50;;;2.00;;
7835;SDS011;3963;42.658;23.298;2023-03-12T12:53:02;2.20;;;1.77;;
7835;SDS011;3963;42.658;23.298;2023-03-12T12:55:39;2.60;;;1.97;;
7835;SDS011;3963;42.658;23.298;2023-03-12T12:58:16;2.57;;;1.93;;
7835;SDS011;3963;42.658;23.298;2023-03-12T13:00:48;3.93;;;2.17;;
7835;SDS011;3963;42.658;23.298;2023-03-12T13:03:16;4.77;;;2.03;;
7835;SDS011;3963;42.658;23.298;2023-03-12T13:05:51;2.87;;;2.10;;
7835;SDS011;3963;42.658;23.298;2023-03-12T13:11:25;3.10;;;2.23;;
7835;SDS011;3963;42.658;23.298;2023-03-12T13:14:12;3.93;;;2.17;;
7835;SDS011;3963;42.658;23.298;2023-03-12T13:16:44;5.00;;;2.20;;
7835;SDS011;3963;42.658;23.298;2023-03-12T13:19:23;2.27;;;1.80;;
7835;SDS011;3963;42.658;23.298;2023-03-12T13:21:55;5.43;;;2.13;;
7835;SDS011;3963;42.658;23.298;2023-03-12T13:24:34;2.20;;;2.00;;
7835;SDS011;3963;42.658;23.298;2023-03-12T13:27:09;3.57;;;2.63;;
7835;SDS011;3963;42.658;23.298;2023-03-12T13:29:43;3.57;;;2.50;;
7835;SDS011;3963;42.658;23.298;2023-03-12T13:35:05;3.07;;;2.10;;
7835;SDS011;3963;42.658;23.298;2023-03-12T13:37:58;3.10;;;2.27;;
7835;SDS011;3963;42.658;23.298;2023-03-12T13:40:38;4.20;;;2.50;;
7835;SDS011;3963;42.658;23.298;2023-03-12T13:49:17;2.87;;;2.33;;
7835;SDS011;3963;42.658;23.298;2023-03-12T13:51:52;2.90;;;2.10;;
7835;SDS011;3963;42.658;23.298;2023-03-12T13:54:22;3.57;;;2.50;;
7835;SDS011;3963;42.658;23.298;2023-03-12T13:56:54;3.10;;;2.10;;
7835;SDS011;3963;42.658;23.298;2023-03-12T13:59:24;3.33;;;2.30;;
7835;SDS011;3963;42.658;23.298;2023-03-12T14:01:55;4.00;;;2.60;;
7835;SDS011;3963;42.658;23.298;2023-03-12T14:04:28;3.70;;;2.70;;
7835;SDS011;3963;42.658;23.298;2023-03-12T14:07:03;3.17;;;2.63;;
7835;SDS011;3963;42.658;23.298;2023-03-12T14:09:50;4.03;;;2.40;;
7835;SDS011;3963;42.658;23.298;2023-03-12T14:12:27;3.53;;;2.73;;
7835;SDS011;3963;42.658;23.298;2023-03-12T14:15:06;2.87;;;2.30;;
7835;SDS011;3963;42.658;23.298;2023-03-12T14:17:47;2.60;;;2.33;;
7835;SDS011;3963;42.658;23.298;2023-03-12T14:20:24;2.40;;;2.20;;
7835;SDS011;3963;42.658;23.298;2023-03-12T14:22:53;2.90;;;2.07;;
7835;SDS011;3963;42.658;23.298;2023-03-12T14:25:30;2.90;;;2.50;;
7835;SDS011;3963;42.658;23.298;2023-03-12T14:27:59;3.87;;;2.63;;
7835;SDS011;3963;42.658;23.298;2023-03-12T14:30:29;4.00;;;2.40;;
7835;SDS011;3963;42.658;23.298;2023-03-12T14:33:06;6.60;;;2.13;;
7835;SDS011;3963;42.658;23.298;2023-03-12T14:35:36;3.53;;;2.40;;
7835;SDS011;3963;42.658;23.298;2023-03-12T14:38:06;2.27;;;1.97;;
7835;SDS011;3963;42.658;23.298;2023-03-12T14:40:41;2.40;;;2.20;;
7835;SDS011;3963;42.658;23.298;2023-03-12T14:43:21;3.53;;;2.40;;
7835;SDS011;3963;42.658;23.298;2023-03-12T14:45:50;2.73;;;2.17;;
7835;SDS011;3963;42.658;23.298;2023-03-12T14:48:21;2.67;;;1.97;;
7835;SDS011;3963;42.658;23.298;2023-03-12T14:50:52;5.80;;;2.20;;
7835;SDS011;3963;42.658;23.298;2023-03-12T14:53:20;2.90;;;2.60;;
7835;SDS011;3963;42.658;23.298;2023-03-12T14:55:59;3.27;;;2.30;;
7835;SDS011;3963;42.658;23.298;2023-03-12T14:58:31;3.70;;;2.20;;
7835;SDS011;3963;42.658;23.298;2023-03-12T15:00:59;3.77;;;2.37;;
7835;SDS011;3963;42.658;23.298;2023-03-12T15:03:39;3.10;;;2.20;;
7835;SDS011;3963;42.658;23.298;2023-03-12T15:06:17;3.17;;;2.33;;
7835;SDS011;3963;42.658;23.298;2023-03-12T15:08:46;3.47;;;2.40;;
7835;SDS011;3963;42.658;23.298;2023-03-12T15:11:14;2.73;;;2.43;;
7835;SDS011;3963;42.658;23.298;2023-03-12T15:13:47;3.60;;;2.23;;
7835;SDS011;3963;42.658;23.298;2023-03-12T15:16:14;3.53;;;2.20;;
7835;SDS011;3963;42.658;23.298;2023-03-12T15:18:42;2.90;;;2.17;;
7835;SDS011;3963;42.658;23.298;2023-03-12T15:21:11;7.27;;;2.50;;
7835;SDS011;3963;42.658;23.298;2023-03-12T15:23:38;6.77;;;2.50;;
7835;SDS011;3963;42.658;23.298;2023-03-12T15:26:09;3.57;;;2.30;;
7835;SDS011;3963;42.658;23.298;2023-03-12T15:28:37;2.63;;;2.23;;
7835;SDS011;3963;42.658;23.298;2023-03-12T15:31:06;4.10;;;2.30;;
7835;SDS011;3963;42.658;23.298;2023-03-12T15:33:36;4.60;;;2.37;;
7835;SDS011;3963;42.658;23.298;2023-03-12T15:36:05;4.73;;;2.47;;